Time;durP1;ratioP1;P1;durP2;ratioP2;P2;SDS_P1;SDS_P2;PMS_P1;PMS_P2;Temp;Humidity;BMP_temperature;BMP_pressure;BME280_temperature;BME280_humidity;BME280_pressure;Samples;Min_cycle;Max_cycle;Signal;HPM_P1;HPM_P2
2022/04/04 00:00:00;;;;;;;356.83;119.88;;;;;;;-144.77;100.00;59014.09;339494;29;991;-68
2022/04/04 00:00:11;;;;;;;358.40;121.17;;;;;;;-144.77;100.00;59014.09;343262;28;1209;-68
2022/04/04 00:00:22;;;;;;;360.35;122.43;;;;;;;-144.77;100.00;59014.09;339457;29;933;-68
2022/04/04 00:00:32;;;;;;;360.33;125.75;;;;;;;-144.77;100.00;59014.09;339724;29;1503;-68
2022/04/04 00:00:43;;;;;;;359.77;124.67;;;;;;;-144.77;100.00;59014.09;338017;29;807;-68
2022/04/04 00:00:53;;;;;;;360.98;124.57;;;;;;;-144.77;100.00;59014.09;340799;28;975;-68
2022/04/04 00:01:04;;;;;;;362.02;124.93;;;;;;;-144.77;100.00;59014.09;340675;28;1303;-68
2022/04/04 00:01:15;;;;;;;365.13;128.23;;;;;;;-144.77;100.00;59014.09;340670;28;1270;-69
2022/04/04 00:01:25;;;;;;;364.77;129.48;;;;;;;-144.77;100.00;59014.09;339736;29;857;-68
2022/04/04 00:01:36;;;;;;;365.08;129.43;;;;;;;-144.77;100.00;59014.09;340724;28;1254;-68
2022/04/04 00:01:46;;;;;;;363.27;126.03;;;;;;;-144.77;100.00;59014.09;342218;28;1291;-68
2022/04/04 00:01:56;;;;;;;361.63;124.95;;;;;;;-144.77;100.00;59014.09;340668;28;1202;-68
2022/04/04 00:02:07;;;;;;;361.50;125.07;;;;;;;-144.77;100.00;59014.09;340876;28;858;-68
2022/04/04 00:02:18;;;;;;;360.30;124.70;;;;;;;-144.77;100.00;59014.09;340831;28;1366;-68
2022/04/04 00:02:28;;;;;;;360.40;122.77;;;;;;;-144.77;100.00;59014.09;339449;29;1144;-68
2022/04/04 00:02:38;;;;;;;359.80;122.23;;;;;;;-144.77;100.00;59014.09;338002;29;836;-68
2022/04/04 00:02:49;;;;;;;362.10;123.60;;;;;;;-144.77;100.00;59014.09;338339;29;1127;-68
2022/04/04 00:02:59;;;;;;;361.55;124.63;;;;;;;-144.77;100.00;59014.09;338737;29;1472;-68
2022/04/04 00:03:10;;;;;;;363.20;127.73;;;;;;;-144.77;100.00;59014.09;340164;28;1303;-68
2022/04/04 00:03:20;;;;;;;360.10;125.90;;;;;;;-144.77;100.00;59014.09;339596;29;1115;-68
2022/04/04 00:03:31;;;;;;;360.07;124.70;;;;;;;-144.77;100.00;59014.09;340685;28;1231;-68
2022/04/04 00:03:41;;;;;;;357.33;120.65;;;;;;;-144.77;100.00;59014.09;341087;28;818;-68
2022/04/04 00:03:51;;;;;;;357.37;119.70;;;;;;;-144.77;100.00;59014.09;340962;28;751;-68
2022/04/04 00:04:02;;;;;;;359.48;123.80;;;;;;;-144.77;100.00;59014.09;340820;28;1295;-68
2022/04/04 00:04:12;;;;;;;361.37;124.13;;;;;;;-144.77;100.00;59014.09;339441;29;1445;-68
2022/04/04 00:04:23;;;;;;;363.93;127.07;;;;;;;-144.77;100.00;59014.09;339449;29;865;-68
2022/04/04 00:04:33;;;;;;;362.93;124.50;;;;;;;-144.77;100.00;59014.09;339678;29;881;-68
2022/04/04 00:04:43;;;;;;;361.15;124.18;;;;;;;-144.77;100.00;59014.09;340830;28;1649;-68
2022/04/04 00:04:54;;;;;;;359.83;123.57;;;;;;;-144.77;100.00;59014.09;339308;29;1541;-68
2022/04/04 00:05:05;;;;;;;357.58;122.80;;;;;;;-144.77;100.00;59014.09;339495;29;797;-68
2022/04/04 00:05:15;;;;;;;357.73;123.93;;;;;;;-144.77;100.00;59014.09;339427;29;754;-68
2022/04/04 00:05:26;;;;;;;358.00;122.20;;;;;;;-144.77;100.00;59014.09;339480;29;1066;-69
2022/04/04 00:05:36;;;;;;;360.13;123.27;;;;;;;-144.77;100.00;59014.09;338144;29;763;-68
2022/04/04 00:05:48;;;;;;;361.37;122.37;;;;;;;-144.77;100.00;59014.09;338173;29;949;-68
2022/04/04 00:05:58;;;;;;;362.77;123.55;;;;;;;-144.77;100.00;59014.09;338053;29;1463;-68
2022/04/04 00:06:08;;;;;;;361.77;122.07;;;;;;;-144.77;100.00;59014.09;338274;29;889;-68
2022/04/04 00:06:19;;;;;;;361.75;123.03;;;;;;;-144.77;100.00;59014.09;340765;28;1226;-68
2022/04/04 00:06:31;;;;;;;361.57;125.43;;;;;;;-144.77;100.00;59014.09;340150;28;1395;-68
2022/04/04 00:06:41;;;;;;;359.08;124.13;;;;;;;-144.77;100.00;59014.09;339436;29;791;-68
2022/04/04 00:06:52;;;;;;;357.63;123.33;;;;;;;-144.77;100.00;59014.09;338191;29;826;-68
2022/04/04 00:07:02;;;;;;;357.30;122.57;;;;;;;-144.77;100.00;59014.09;337877;29;1183;-68
2022/04/04 00:07:13;;;;;;;358.30;124.53;;;;;;;-144.77;100.00;59014.09;338367;29;672;-68
2022/04/04 00:07:23;;;;;;;358.00;125.55;;;;;;;-144.77;100.00;59014.09;340325;28;2504;-68
2022/04/04 00:07:34;;;;;;;357.77;124.07;;;;;;;-144.77;100.00;59014.09;339182;29;946;-68
2022/04/04 00:07:44;;;;;;;356.17;121.57;;;;;;;-144.77;100.00;59014.09;338450;29;1577;-68
2022/04/04 00:07:54;;;;;;;356.90;121.97;;;;;;;-144.77;100.00;59014.09;339348;29;1189;-68
2022/04/04 00:08:07;;;;;;;356.90;122.30;;;;;;;-144.77;100.00;59014.09;338149;29;1301;-68
2022/04/04 00:08:18;;;;;;;358.38;121.70;;;;;;;-144.77;100.00;59014.09;340442;28;1530;-68
2022/04/04 00:08:29;;;;;;;358.55;120.22;;;;;;;-144.77;100.00;59014.09;339274;29;1280;-68
2022/04/04 00:08:40;;;;;;;357.73;119.97;;;;;;;-144.77;100.00;59014.09;338218;29;810;-68
2022/04/04 00:08:51;;;;;;;358.50;121.07;;;;;;;-144.77;100.00;59014.09;339268;29;1382;-68
2022/04/04 00:09:01;;;;;;;359.70;122.28;;;;;;;-144.77;100.00;59014.09;339567;29;735;-68
2022/04/04 00:09:11;;;;;;;361.80;123.43;;;;;;;-144.77;100.00;59014.09;339392;29;1214;-68
2022/04/04 00:09:22;;;;;;;360.52;121.47;;;;;;;-144.77;100.00;59014.09;339326;29;1194;-68
2022/04/04 00:09:32;;;;;;;359.43;120.27;;;;;;;-144.77;100.00;59014.09;339351;29;869;-68
2022/04/04 00:09:43;;;;;;;359.13;118.95;;;;;;;-144.77;100.00;59014.09;336884;29;1281;-68
2022/04/04 00:09:53;;;;;;;360.73;121.10;;;;;;;-144.77;100.00;59014.09;337504;29;881;-68
2022/04/04 00:10:04;;;;;;;360.70;122.93;;;;;;;-144.77;100.00;59014.09;338007;29;1246;-68
2022/04/04 00:10:14;;;;;;;359.52;122.78;;;;;;;-144.77;100.00;59014.09;339652;29;810;-68
2022/04/04 00:10:25;;;;;;;359.33;122.77;;;;;;;-144.77;100.00;59014.09;339448;29;822;-68
2022/04/04 00:10:35;;;;;;;359.77;121.85;;;;;;;-144.77;100.00;59014.09;340376;28;1286;-68
2022/04/04 00:10:45;;;;;;;362.70;124.50;;;;;;;-144.77;100.00;59014.09;342037;28;972;-68
2022/04/04 00:10:56;;;;;;;363.50;127.05;;;;;;;-144.77;100.00;59014.09;340951;28;806;-68
2022/04/04 00:11:06;;;;;;;361.77;126.43;;;;;;;-144.77;100.00;59014.09;340760;28;774;-68
2022/04/04 00:11:17;;;;;;;360.35;124.05;;;;;;;-144.77;100.00;59014.09;340704;28;747;-68
2022/04/04 00:11:28;;;;;;;362.75;123.90;;;;;;;-144.77;100.00;59014.09;342112;28;947;-68
2022/04/04 00:11:38;;;;;;;365.07;127.37;;;;;;;-144.77;100.00;59014.09;337919;29;1182;-68
2022/04/04 00:11:49;;;;;;;366.25;130.30;;;;;;;-144.77;100.00;59014.09;336983;29;787;-68
2022/04/04 00:11:59;;;;;;;364.83;131.50;;;;;;;-144.77;100.00;59014.09;339544;29;2005;-68
2022/04/04 00:12:09;;;;;;;362.35;128.82;;;;;;;-144.77;100.00;59014.09;339469;29;938;-68
2022/04/04 00:12:20;;;;;;;361.43;127.60;;;;;;;-144.77;100.00;59014.09;338253;29;823;-68
2022/04/04 00:12:31;;;;;;;362.58;125.22;;;;;;;-144.77;100.00;59014.09;339715;28;1700;-68
2022/04/04 00:12:41;;;;;;;363.17;127.20;;;;;;;-144.77;100.00;59014.09;337921;29;786;-68
2022/04/04 00:12:52;;;;;;;363.87;127.77;;;;;;;-144.77;100.00;59014.09;339457;29;900;-68
2022/04/04 00:13:02;;;;;;;363.80;127.93;;;;;;;-144.77;100.00;59014.09;338794;29;854;-68
2022/04/04 00:13:12;;;;;;;363.80;125.40;;;;;;;-144.77;100.00;59014.09;339486;29;1257;-68
2022/04/04 00:13:23;;;;;;;361.85;123.65;;;;;;;-144.77;100.00;59014.09;340772;28;933;-68
2022/04/04 00:13:34;;;;;;;360.80;123.43;;;;;;;-144.77;100.00;59014.09;338910;28;818;-68
2022/04/04 00:13:44;;;;;;;360.83;122.22;;;;;;;-144.77;100.00;59014.09;340669;28;854;-68
2022/04/04 00:13:55;;;;;;;362.10;123.10;;;;;;;-144.77;100.00;59014.09;340844;28;751;-67
2022/04/04 00:14:06;;;;;;;363.17;123.50;;;;;;;-144.77;100.00;59014.09;338091;29;771;-67
2022/04/04 00:14:16;;;;;;;361.92;123.90;;;;;;;-144.77;100.00;59014.09;336914;29;803;-67
2022/04/04 00:14:27;;;;;;;361.27;125.07;;;;;;;-144.77;100.00;59014.09;338334;29;826;-69
2022/04/04 00:14:37;;;;;;;360.54;124.42;;;;;;;-144.77;100.00;59014.09;339195;29;964;-68
2022/04/04 00:14:48;;;;;;;360.00;123.60;;;;;;;-144.77;100.00;59014.09;339431;29;842;-68
2022/04/04 00:14:59;;;;;;;361.15;124.00;;;;;;;-144.77;100.00;59014.09;336798;29;1560;-68
2022/04/04 00:15:09;;;;;;;361.65;125.70;;;;;;;-144.77;100.00;59014.09;336907;29;1229;-68
2022/04/04 00:15:20;;;;;;;363.97;126.70;;;;;;;-144.77;100.00;59014.09;339430;29;1186;-68
2022/04/04 00:15:31;;;;;;;362.30;125.22;;;;;;;-144.77;100.00;59014.09;339584;29;925;-68
2022/04/04 00:15:41;;;;;;;365.40;125.63;;;;;;;-144.77;100.00;59014.09;338166;29;921;-68
2022/04/04 00:15:52;;;;;;;364.07;125.57;;;;;;;-144.77;100.00;59014.09;337971;29;895;-68
2022/04/04 00:16:02;;;;;;;363.88;124.97;;;;;;;-144.77;100.00;59014.09;336907;29;835;-68
2022/04/04 00:16:13;;;;;;;360.27;124.00;;;;;;;-144.77;100.00;59014.09;335619;29;851;-68
2022/04/04 00:16:23;;;;;;;360.80;124.07;;;;;;;-144.77;100.00;59014.09;335418;29;874;-68
2022/04/04 00:16:33;;;;;;;360.33;124.57;;;;;;;-144.77;100.00;59014.09;335605;29;1174;-68
2022/04/04 00:16:44;;;;;;;362.15;127.03;;;;;;;-144.77;100.00;59014.09;336781;29;933;-68
2022/04/04 00:16:54;;;;;;;362.13;126.33;;;;;;;-144.77;100.00;59014.09;338332;29;1296;-69
2022/04/04 00:17:05;;;;;;;362.48;124.93;;;;;;;-144.77;100.00;59014.09;340894;28;798;-69
2022/04/04 00:17:15;;;;;;;360.03;120.90;;;;;;;-144.77;100.00;59014.09;338292;29;881;-68
2022/04/04 00:17:25;;;;;;;359.05;120.88;;;;;;;-144.77;100.00;59014.09;338956;28;1633;-68
2022/04/04 00:17:36;;;;;;;359.17;123.33;;;;;;;-144.77;100.00;59014.09;337865;29;1198;-68
2022/04/04 00:17:47;;;;;;;361.20;125.72;;;;;;;-144.77;100.00;59014.09;338395;29;841;-68
2022/04/04 00:17:57;;;;;;;362.40;126.53;;;;;;;-144.77;100.00;59014.09;335512;29;935;-68
2022/04/04 00:18:08;;;;;;;363.40;125.68;;;;;;;-144.77;100.00;59014.09;336971;29;1516;-67
2022/04/04 00:18:19;;;;;;;361.88;124.50;;;;;;;-144.77;100.00;59014.09;336789;29;820;-67
2022/04/04 00:18:29;;;;;;;362.85;124.05;;;;;;;-144.77;100.00;59014.09;338056;29;1471;-67
2022/04/04 00:18:39;;;;;;;360.33;123.03;;;;;;;-144.77;100.00;59014.09;339511;29;897;-67
2022/04/04 00:18:50;;;;;;;360.63;124.43;;;;;;;-144.77;100.00;59014.09;341907;28;1181;-67
2022/04/04 00:19:00;;;;;;;357.40;122.35;;;;;;;-144.77;100.00;59014.09;340797;28;790;-67
2022/04/04 00:19:11;;;;;;;358.83;121.37;;;;;;;-144.77;100.00;59014.09;342173;28;853;-67
2022/04/04 00:19:22;;;;;;;357.83;118.78;;;;;;;-144.77;100.00;59014.09;339468;29;884;-67
2022/04/04 00:19:33;;;;;;;358.52;120.80;;;;;;;-144.77;100.00;59014.09;339366;28;1310;-67
2022/04/04 00:19:43;;;;;;;358.27;120.87;;;;;;;-144.77;100.00;59014.09;340583;28;806;-68
2022/04/04 00:19:54;;;;;;;357.83;122.10;;;;;;;-144.77;100.00;59014.09;340767;28;738;-68
2022/04/04 00:20:07;;;;;;;357.93;122.00;;;;;;;-144.77;100.00;59014.09;340632;28;1302;-68
2022/04/04 00:20:17;;;;;;;359.83;122.28;;;;;;;-144.77;100.00;59014.09;339712;28;1285;-68
2022/04/04 00:20:28;;;;;;;363.00;123.75;;;;;;;-144.77;100.00;59014.09;340864;28;1275;-68
2022/04/04 00:20:39;;;;;;;362.83;123.20;;;;;;;-144.77;100.00;59014.09;339891;28;2538;-68
2022/04/04 00:20:50;;;;;;;360.33;123.18;;;;;;;-144.77;100.00;59014.09;339246;29;979;-68
2022/04/04 00:21:00;;;;;;;358.03;123.40;;;;;;;-144.77;100.00;59014.09;338007;29;790;-68
2022/04/04 00:21:11;;;;;;;360.10;124.70;;;;;;;-144.77;100.00;59014.09;338942;29;1222;-68
2022/04/04 00:21:21;;;;;;;361.85;126.82;;;;;;;-144.77;100.00;59014.09;339361;29;1431;-68
2022/04/04 00:21:32;;;;;;;360.57;124.67;;;;;;;-144.77;100.00;59014.09;338286;29;900;-68
2022/04/04 00:21:42;;;;;;;360.67;124.50;;;;;;;-144.77;100.00;59014.09;338654;29;944;-67
2022/04/04 00:21:53;;;;;;;361.10;123.13;;;;;;;-144.77;100.00;59014.09;338561;29;1248;-67
2022/04/04 00:22:03;;;;;;;362.13;123.57;;;;;;;-144.77;100.00;59014.09;339120;29;1214;-67
2022/04/04 00:22:14;;;;;;;359.10;122.07;;;;;;;-144.77;100.00;59014.09;338772;29;1715;-67
2022/04/04 00:22:24;;;;;;;359.47;122.23;;;;;;;-144.77;100.00;59014.09;339594;29;917;-67
2022/04/04 00:22:35;;;;;;;359.63;121.30;;;;;;;-144.77;100.00;59014.09;340580;28;1076;-67
2022/04/04 00:22:46;;;;;;;362.33;123.07;;;;;;;-144.77;100.00;59014.09;339047;29;2351;-67
2022/04/04 00:22:56;;;;;;;361.30;123.15;;;;;;;-144.77;100.00;59014.09;340768;28;835;-67
2022/04/04 00:23:12;;;;;;;363.20;125.80;;;;;;;-144.77;100.00;59014.09;341355;28;747;-68
2022/04/04 00:23:23;;;;;;;360.77;123.63;;;;;;;-144.77;100.00;59014.09;339526;29;823;-68
2022/04/04 00:23:33;;;;;;;358.03;121.37;;;;;;;-144.77;100.00;59014.09;338609;29;1166;-68
2022/04/04 00:23:43;;;;;;;356.63;121.73;;;;;;;-144.77;100.00;59014.09;339330;29;929;-68
2022/04/04 00:23:54;;;;;;;356.87;121.47;;;;;;;-144.77;100.00;59014.09;339333;29;1205;-68
2022/04/04 00:24:04;;;;;;;358.15;122.15;;;;;;;-144.77;100.00;59014.09;337935;29;866;-68
2022/04/04 00:24:15;;;;;;;359.90;123.37;;;;;;;-144.77;100.00;59014.09;338125;29;1000;-68
2022/04/04 00:24:25;;;;;;;361.77;125.45;;;;;;;-144.77;100.00;59014.09;340610;28;1380;-68
2022/04/04 00:24:36;;;;;;;359.03;122.57;;;;;;;-144.77;100.00;59014.09;340810;28;747;-68
2022/04/04 00:24:46;;;;;;;358.92;121.75;;;;;;;-144.77;100.00;59014.09;341638;28;1289;-68
2022/04/04 00:24:56;;;;;;;356.23;119.70;;;;;;;-144.77;100.00;59014.09;339408;28;1531;-68
2022/04/04 00:25:07;;;;;;;356.50;119.32;;;;;;;-144.77;100.00;59014.09;338121;29;822;-68
2022/04/04 00:25:18;;;;;;;356.88;119.50;;;;;;;-144.77;100.00;59014.09;338062;29;1190;-68
2022/04/04 00:25:29;;;;;;;356.80;119.75;;;;;;;-144.77;100.00;59014.09;338133;29;807;-68
2022/04/04 00:25:40;;;;;;;359.20;121.97;;;;;;;-144.77;100.00;59014.09;336811;29;799;-68
2022/04/04 00:25:50;;;;;;;359.35;122.05;;;;;;;-144.77;100.00;59014.09;337384;29;806;-68
2022/04/04 00:26:01;;;;;;;360.70;122.10;;;;;;;-144.77;100.00;59014.09;336653;29;906;-68
2022/04/04 00:26:11;;;;;;;358.00;120.90;;;;;;;-144.77;100.00;59014.09;336375;29;1310;-68
2022/04/04 00:26:22;;;;;;;357.03;121.20;;;;;;;-144.77;100.00;59014.09;337000;29;903;-68
2022/04/04 00:26:32;;;;;;;355.50;120.15;;;;;;;-144.77;100.00;59014.09;338248;29;835;-68
2022/04/04 00:26:42;;;;;;;356.40;121.97;;;;;;;-144.77;100.00;59014.09;338361;29;755;-68
2022/04/04 00:26:53;;;;;;;357.97;121.93;;;;;;;-144.77;100.00;59014.09;339291;28;1370;-68
2022/04/04 00:27:03;;;;;;;358.38;121.00;;;;;;;-144.77;100.00;59014.09;339068;28;1520;-68
2022/04/04 00:27:14;;;;;;;358.80;120.07;;;;;;;-144.77;100.00;59014.09;338969;29;846;-69
2022/04/04 00:27:24;;;;;;;360.00;121.87;;;;;;;-144.77;100.00;59014.09;340702;28;1396;-68
2022/04/04 00:27:34;;;;;;;360.05;122.47;;;;;;;-144.77;100.00;59014.09;340568;28;1105;-68
2022/04/04 00:27:45;;;;;;;357.93;120.60;;;;;;;-144.77;100.00;59014.09;341863;28;1189;-68
2022/04/04 00:27:55;;;;;;;356.53;119.73;;;;;;;-144.77;100.00;59014.09;342192;28;775;-68
2022/04/04 00:28:06;;;;;;;358.67;121.18;;;;;;;-144.77;100.00;59014.09;342135;28;1162;-68
2022/04/04 00:28:16;;;;;;;361.00;122.77;;;;;;;-144.77;100.00;59014.09;340486;28;1354;-68
2022/04/04 00:28:27;;;;;;;363.42;123.30;;;;;;;-144.77;100.00;59014.09;340838;28;831;-68
2022/04/04 00:28:37;;;;;;;361.87;123.60;;;;;;;-144.77;100.00;59014.09;339191;29;1195;-68
2022/04/04 00:28:49;;;;;;;362.30;124.43;;;;;;;-144.77;100.00;59014.09;339488;29;791;-68
2022/04/04 00:28:59;;;;;;;359.90;122.57;;;;;;;-144.77;100.00;59014.09;340461;28;1304;-68
2022/04/04 00:29:10;;;;;;;361.03;122.47;;;;;;;-144.77;100.00;59014.09;339204;29;866;-68
2022/04/04 00:29:20;;;;;;;359.92;122.10;;;;;;;-144.77;100.00;59014.09;339451;29;790;-68
2022/04/04 00:29:30;;;;;;;360.03;122.47;;;;;;;-144.77;100.00;59014.09;339358;29;770;-68
2022/04/04 00:29:41;;;;;;;359.10;121.50;;;;;;;-144.77;100.00;59014.09;338140;29;1570;-68
2022/04/04 00:29:52;;;;;;;359.17;122.03;;;;;;;-144.77;100.00;59014.09;338084;29;1005;-68
2022/04/04 00:30:03;;;;;;;358.83;121.80;;;;;;;-144.77;100.00;59014.09;338241;29;1142;-68
2022/04/04 00:30:13;;;;;;;356.75;120.10;;;;;;;-144.77;100.00;59014.09;338643;29;1143;-69
2022/04/04 00:30:23;;;;;;;356.80;119.20;;;;;;;-144.77;100.00;59014.09;339234;28;1282;-68
2022/04/04 00:30:34;;;;;;;357.20;119.68;;;;;;;-144.77;100.00;59014.09;337831;29;1222;-68
2022/04/04 00:30:44;;;;;;;359.10;122.40;;;;;;;-144.77;100.00;59014.09;339369;28;1149;-68
2022/04/04 00:30:55;;;;;;;359.73;122.93;;;;;;;-144.77;100.00;59014.09;338868;29;2510;-68
2022/04/04 00:31:05;;;;;;;359.47;123.80;;;;;;;-144.77;100.00;59014.09;339504;29;885;-68
2022/04/04 00:31:18;;;;;;;357.88;122.18;;;;;;;-144.77;100.00;59014.09;339112;28;1225;-68
2022/04/04 00:31:29;;;;;;;357.33;121.68;;;;;;;-144.77;100.00;59014.09;339517;29;940;-68
2022/04/04 00:31:39;;;;;;;358.73;122.93;;;;;;;-144.77;100.00;59014.09;340532;28;818;-68
2022/04/04 00:31:50;;;;;;;357.57;121.63;;;;;;;-144.77;100.00;59014.09;339832;28;1602;-68
2022/04/04 00:32:00;;;;;;;358.33;121.72;;;;;;;-144.77;100.00;59014.09;336497;29;1938;-68
2022/04/04 00:32:11;;;;;;;357.80;118.90;;;;;;;-144.77;100.00;59014.09;339094;29;1111;-68
2022/04/04 00:32:21;;;;;;;358.43;117.93;;;;;;;-144.77;100.00;59014.09;338753;29;2069;-68
2022/04/04 00:32:32;;;;;;;356.33;118.17;;;;;;;-144.77;100.00;59014.09;339300;29;983;-68
2022/04/04 00:32:43;;;;;;;357.95;122.30;;;;;;;-144.77;100.00;59014.09;340387;28;834;-68
2022/04/04 00:32:53;;;;;;;356.77;121.18;;;;;;;-144.77;100.00;59014.09;340259;28;1309;-68
2022/04/04 00:33:04;;;;;;;358.03;121.27;;;;;;;-144.77;100.00;59014.09;340730;28;866;-68
2022/04/04 00:33:14;;;;;;;358.40;120.68;;;;;;;-144.77;100.00;59014.09;340663;28;822;-68
2022/04/04 00:33:25;;;;;;;358.57;121.60;;;;;;;-144.77;100.00;59014.09;341892;28;1192;-68
2022/04/04 00:33:35;;;;;;;358.83;121.13;;;;;;;-144.77;100.00;59014.09;337418;29;1293;-68
2022/04/04 00:33:46;;;;;;;357.95;121.28;;;;;;;-144.77;100.00;59014.09;338092;29;803;-68
2022/04/04 00:33:56;;;;;;;358.50;120.70;;;;;;;-144.77;100.00;59014.09;339306;28;1178;-68
2022/04/04 00:34:06;;;;;;;357.45;119.45;;;;;;;-144.77;100.00;59014.09;340675;28;785;-68
2022/04/04 00:34:17;;;;;;;355.43;117.20;;;;;;;-144.77;100.00;59014.09;341801;28;1372;-68
2022/04/04 00:34:27;;;;;;;353.85;116.45;;;;;;;-144.77;100.00;59014.09;342051;28;833;-68
2022/04/04 00:34:38;;;;;;;354.07;117.73;;;;;;;-144.77;100.00;59014.09;342018;28;773;-68
2022/04/04 00:34:48;;;;;;;354.70;118.57;;;;;;;-144.77;100.00;59014.09;341718;28;832;-68
2022/04/04 00:35:00;;;;;;;355.47;120.77;;;;;;;-144.77;100.00;59014.09;341844;28;891;-68
2022/04/04 00:35:10;;;;;;;354.90;119.68;;;;;;;-144.77;100.00;59014.09;340428;28;1206;-68
2022/04/04 00:35:21;;;;;;;355.30;120.13;;;;;;;-144.77;100.00;59014.09;339019;29;1298;-68
2022/04/04 00:35:31;;;;;;;356.33;120.37;;;;;;;-144.77;100.00;59014.09;339390;29;877;-68
2022/04/04 00:35:42;;;;;;;356.83;120.65;;;;;;;-144.77;100.00;59014.09;339238;29;852;-68
2022/04/04 00:35:52;;;;;;;358.10;121.47;;;;;;;-144.77;100.00;59014.09;339341;29;1107;-68
2022/04/04 00:36:03;;;;;;;357.20;120.53;;;;;;;-144.77;100.00;59014.09;339434;29;971;-68
2022/04/04 00:36:14;;;;;;;356.85;120.00;;;;;;;-144.77;100.00;59014.09;338054;29;1020;-68
2022/04/04 00:36:24;;;;;;;355.87;120.57;;;;;;;-144.77;100.00;59014.09;337897;29;802;-68
2022/04/04 00:36:34;;;;;;;358.30;122.30;;;;;;;-144.77;100.00;59014.09;337498;29;1646;-68
2022/04/04 00:36:45;;;;;;;359.43;123.47;;;;;;;-144.77;100.00;59014.09;337932;29;782;-68
2022/04/04 00:36:56;;;;;;;359.13;120.57;;;;;;;-144.77;100.00;59014.09;341891;28;1524;-68
2022/04/04 00:37:06;;;;;;;358.60;120.90;;;;;;;-144.77;100.00;59014.09;344077;28;900;-68
2022/04/04 00:37:16;;;;;;;359.83;121.80;;;;;;;-144.77;100.00;59014.09;340719;28;865;-68
2022/04/04 00:37:27;;;;;;;358.93;122.00;;;;;;;-144.77;100.00;59014.09;339104;29;1257;-68
2022/04/04 00:37:38;;;;;;;358.45;121.15;;;;;;;-144.77;100.00;59014.09;340325;28;825;-68
2022/04/04 00:37:48;;;;;;;355.70;120.10;;;;;;;-144.77;100.00;59014.09;341994;28;1244;-68
2022/04/04 00:37:59;;;;;;;356.83;120.23;;;;;;;-144.77;100.00;59014.09;344658;28;1207;-68
2022/04/04 00:38:10;;;;;;;357.13;119.47;;;;;;;-144.77;100.00;59014.09;340562;28;833;-68
2022/04/04 00:38:22;;;;;;;358.35;119.55;;;;;;;-144.77;100.00;59014.09;340792;28;949;-68
2022/04/04 00:38:32;;;;;;;359.95;123.78;;;;;;;-144.77;100.00;59014.09;340537;28;1299;-68
2022/04/04 00:38:43;;;;;;;360.65;125.88;;;;;;;-144.77;100.00;59014.09;338068;29;1460;-68
2022/04/04 00:38:53;;;;;;;358.93;122.63;;;;;;;-144.77;100.00;59014.09;337946;29;923;-68
2022/04/04 00:39:03;;;;;;;357.60;118.93;;;;;;;-144.77;100.00;59014.09;338143;29;1494;-68
2022/04/04 00:39:19;;;;;;;357.57;118.13;;;;;;;-144.77;100.00;59014.09;338781;29;943;-68
2022/04/04 00:39:29;;;;;;;358.65;121.13;;;;;;;-144.77;100.00;59014.09;338135;29;940;-68
2022/04/04 00:39:40;;;;;;;357.77;121.43;;;;;;;-144.77;100.00;59014.09;339098;29;893;-69
2022/04/04 00:39:51;;;;;;;355.00;120.57;;;;;;;-144.77;100.00;59014.09;340803;28;817;-68
2022/04/04 00:40:02;;;;;;;355.60;120.22;;;;;;;-144.77;100.00;59014.09;341860;28;1245;-68
2022/04/04 00:40:12;;;;;;;356.92;121.00;;;;;;;-144.77;100.00;59014.09;340219;28;1227;-68
2022/04/04 00:40:22;;;;;;;356.93;121.33;;;;;;;-144.77;100.00;59014.09;339253;29;879;-68
2022/04/04 00:40:33;;;;;;;355.15;119.80;;;;;;;-144.77;100.00;59014.09;337815;29;1120;-68
2022/04/04 00:40:43;;;;;;;355.10;121.60;;;;;;;-144.77;100.00;59014.09;339491;28;2035;-68
2022/04/04 00:40:54;;;;;;;355.83;122.13;;;;;;;-144.77;100.00;59014.09;339299;29;1384;-68
2022/04/04 00:41:08;;;;;;;355.60;121.43;;;;;;;-144.77;100.00;59014.09;337820;29;812;-68
2022/04/04 00:41:19;;;;;;;356.15;118.68;;;;;;;-144.77;100.00;59014.09;337684;29;1725;-68
2022/04/04 00:41:30;;;;;;;354.33;117.03;;;;;;;-144.77;100.00;59014.09;337928;29;827;-68
2022/04/04 00:41:40;;;;;;;354.25;117.32;;;;;;;-144.77;100.00;59014.09;337883;29;1238;-68
2022/04/04 00:41:51;;;;;;;352.70;116.10;;;;;;;-144.77;100.00;59014.09;337796;29;1257;-68
2022/04/04 00:42:01;;;;;;;354.20;117.32;;;;;;;-144.77;100.00;59014.09;338056;29;892;-68
2022/04/04 00:42:15;;;;;;;353.73;117.10;;;;;;;-144.77;100.00;59014.09;338975;29;1095;-68
2022/04/04 00:42:26;;;;;;;353.58;119.78;;;;;;;-144.77;100.00;59014.09;339188;29;933;-68
2022/04/04 00:42:36;;;;;;;354.05;120.63;;;;;;;-144.77;100.00;59014.09;339032;29;973;-68
2022/04/04 00:42:47;;;;;;;355.87;121.37;;;;;;;-144.77;100.00;59014.09;339114;29;865;-68
2022/04/04 00:42:57;;;;;;;357.30;121.43;;;;;;;-144.77;100.00;59014.09;340658;28;1214;-68
2022/04/04 00:43:08;;;;;;;357.60;120.97;;;;;;;-144.77;100.00;59014.09;340635;28;1277;-69
2022/04/04 00:43:18;;;;;;;355.35;119.68;;;;;;;-144.77;100.00;59014.09;339344;29;857;-68
2022/04/04 00:43:29;;;;;;;355.20;119.85;;;;;;;-144.77;100.00;59014.09;339288;29;1086;-68
2022/04/04 00:43:39;;;;;;;354.53;118.97;;;;;;;-144.77;100.00;59014.09;339402;29;877;-68
2022/04/04 00:43:51;;;;;;;354.05;118.88;;;;;;;-144.77;100.00;59014.09;339390;29;901;-68
2022/04/04 00:44:01;;;;;;;353.15;117.90;;;;;;;-144.77;100.00;59014.09;338070;29;861;-68
2022/04/04 00:44:12;;;;;;;353.17;118.95;;;;;;;-144.77;100.00;59014.09;336791;29;866;-68
2022/04/04 00:44:22;;;;;;;354.27;119.55;;;;;;;-144.77;100.00;59014.09;336626;29;925;-68
2022/04/04 00:44:33;;;;;;;355.37;121.70;;;;;;;-144.77;100.00;59014.09;336460;29;1377;-68
2022/04/04 00:44:45;;;;;;;356.15;120.72;;;;;;;-144.77;100.00;59014.09;337694;29;1317;-68
2022/04/04 00:44:56;;;;;;;356.45;120.45;;;;;;;-144.77;100.00;59014.09;337976;29;881;-68
2022/04/04 00:45:07;;;;;;;356.70;121.63;;;;;;;-144.77;100.00;59014.09;339422;29;857;-68
2022/04/04 00:45:17;;;;;;;357.33;124.25;;;;;;;-144.77;100.00;59014.09;340534;28;1204;-68
2022/04/04 00:45:28;;;;;;;355.83;122.10;;;;;;;-144.77;100.00;59014.09;340607;28;1023;-68
2022/04/04 00:45:42;;;;;;;354.80;120.97;;;;;;;-144.77;100.00;59014.09;340709;28;1095;-68
2022/04/04 00:45:53;;;;;;;356.27;122.15;;;;;;;-144.77;100.00;59014.09;341637;28;1265;-68
2022/04/04 00:46:03;;;;;;;356.73;122.83;;;;;;;-144.77;100.00;59014.09;341987;28;801;-68
2022/04/04 00:46:14;;;;;;;356.38;121.72;;;;;;;-144.77;100.00;59014.09;339810;28;1784;-68
2022/04/04 00:46:24;;;;;;;354.33;119.83;;;;;;;-144.77;100.00;59014.09;340028;28;905;-68
2022/04/04 00:46:37;;;;;;;354.25;119.90;;;;;;;-144.77;100.00;59014.09;336664;29;1378;-68
2022/04/04 00:46:48;;;;;;;353.17;118.03;;;;;;;-144.77;100.00;59014.09;336500;29;976;-68
2022/04/04 00:46:58;;;;;;;354.33;118.53;;;;;;;-144.77;100.00;59014.09;337994;28;1464;-68
2022/04/04 00:47:09;;;;;;;356.30;121.50;;;;;;;-144.77;100.00;59014.09;339357;29;741;-68
2022/04/04 00:47:19;;;;;;;358.53;124.03;;;;;;;-144.77;100.00;59014.09;341900;28;1484;-68
2022/04/04 00:47:29;;;;;;;356.80;120.97;;;;;;;-144.77;100.00;59014.09;341106;28;1451;-68